sensor_id;sensor_type;location;lat;lon;timestamp;temperature;humidity
1988;DHT22;12775;46.994;15.498;2023-02-08T00:01:47;-2.20;78.20
1988;DHT22;12775;46.994;15.498;2023-02-08T00:04:15;-2.20;78.30
1988;DHT22;12775;46.994;15.498;2023-02-08T00:06:42;-2.20;77.80
1988;DHT22;12775;46.994;15.498;2023-02-08T00:09:09;-2.20;77.40
1988;DHT22;12775;46.994;15.498;2023-02-08T00:11:37;-2.20;77.50
1988;DHT22;12775;46.994;15.498;2023-02-08T00:14:05;-2.20;78.00
1988;DHT22;12775;46.994;15.498;2023-02-08T00:16:33;-2.20;77.70
1988;DHT22;12775;46.994;15.498;2023-02-08T00:19:00;-2.20;77.30
1988;DHT22;12775;46.994;15.498;2023-02-08T00:21:27;-2.30;77.80
1988;DHT22;12775;46.994;15.498;2023-02-08T00:23:55;-2.30;77.70
1988;DHT22;12775;46.994;15.498;2023-02-08T00:26:22;-2.30;77.70
1988;DHT22;12775;46.994;15.498;2023-02-08T00:28:50;-2.30;77.70
1988;DHT22;12775;46.994;15.498;2023-02-08T00:31:17;-2.30;77.90
1988;DHT22;12775;46.994;15.498;2023-02-08T00:36:16;-2.50;78.90
1988;DHT22;12775;46.994;15.498;2023-02-08T00:38:43;-2.50;77.20
1988;DHT22;12775;46.994;15.498;2023-02-08T00:41:11;-2.50;77.50
1988;DHT22;12775;46.994;15.498;2023-02-08T00:43:38;-2.60;78.00
1988;DHT22;12775;46.994;15.498;2023-02-08T00:46:05;-2.60;77.80
1988;DHT22;12775;46.994;15.498;2023-02-08T00:48:34;-2.60;78.30
1988;DHT22;12775;46.994;15.498;2023-02-08T00:51:05;-2.60;78.90
1988;DHT22;12775;46.994;15.498;2023-02-08T00:53:35;-2.70;79.20
1988;DHT22;12775;46.994;15.498;2023-02-08T00:56:01;-2.70;79.20
1988;DHT22;12775;46.994;15.498;2023-02-08T00:58:29;-2.70;78.70
1988;DHT22;12775;46.994;15.498;2023-02-08T01:00:56;-2.80;78.80
1988;DHT22;12775;46.994;15.498;2023-02-08T01:03:24;-2.90;79.00
1988;DHT22;12775;46.994;15.498;2023-02-08T01:05:51;-2.90;79.20
1988;DHT22;12775;46.994;15.498;2023-02-08T01:08:19;-3.00;78.80
1988;DHT22;12775;46.994;15.498;2023-02-08T01:10:46;-3.00;79.20
1988;DHT22;12775;46.994;15.498;2023-02-08T01:13:13;-3.00;79.50
1988;DHT22;12775;46.994;15.498;2023-02-08T01:15:41;-3.10;79.30
1988;DHT22;12775;46.994;15.498;2023-02-08T01:18:08;-3.10;79.70
1988;DHT22;12775;46.994;15.498;2023-02-08T01:20:36;-3.10;79.80
1988;DHT22;12775;46.994;15.498;2023-02-08T01:23:03;-3.10;79.50
1988;DHT22;12775;46.994;15.498;2023-02-08T01:25:30;-3.10;80.30
1988;DHT22;12775;46.994;15.498;2023-02-08T01:27:58;-3.10;79.20
1988;DHT22;12775;46.994;15.498;2023-02-08T01:30:25;-3.20;79.20
1988;DHT22;12775;46.994;15.498;2023-02-08T01:32:52;-3.30;79.60
1988;DHT22;12775;46.994;15.498;2023-02-08T01:35:20;-3.30;79.70
1988;DHT22;12775;46.994;15.498;2023-02-08T01:37:47;-3.30;80.50
1988;DHT22;12775;46.994;15.498;2023-02-08T01:40:15;-3.30;80.80
1988;DHT22;12775;46.994;15.498;2023-02-08T01:42:42;-3.30;80.70
1988;DHT22;12775;46.994;15.498;2023-02-08T01:45:29;-3.30;78.30
1988;DHT22;12775;46.994;15.498;2023-02-08T01:48:07;-3.30;77.80
1988;DHT22;12775;46.994;15.498;2023-02-08T01:50:42;-3.30;77.90
1988;DHT22;12775;46.994;15.498;2023-02-08T01:53:07;-3.20;77.80
1988;DHT22;12775;46.994;15.498;2023-02-08T01:55:36;-3.20;78.20
1988;DHT22;12775;46.994;15.498;2023-02-08T01:58:04;-3.20;79.00
1988;DHT22;12775;46.994;15.498;2023-02-08T02:00:30;-3.20;79.20
1988;DHT22;12775;46.994;15.498;2023-02-08T02:02:57;-3.20;78.70
1988;DHT22;12775;46.994;15.498;2023-02-08T02:05:25;-3.20;78.20
1988;DHT22;12775;46.994;15.498;2023-02-08T02:07:52;-3.10;77.80
1988;DHT22;12775;46.994;15.498;2023-02-08T02:10:22;-3.10;77.30
1988;DHT22;12775;46.994;15.498;2023-02-08T02:12:48;-3.10;77.90
1988;DHT22;12775;46.994;15.498;2023-02-08T02:15:16;-3.10;77.30
1988;DHT22;12775;46.994;15.498;2023-02-08T02:17:43;-3.20;77.10
1988;DHT22;12775;46.994;15.498;2023-02-08T02:20:15;-3.20;76.90
1988;DHT22;12775;46.994;15.498;2023-02-08T02:22:54;-3.20;77.50
1988;DHT22;12775;46.994;15.498;2023-02-08T02:33:59;-3.30;76.80
1988;DHT22;12775;46.994;15.498;2023-02-08T02:36:45;-3.30;77.30
1988;DHT22;12775;46.994;15.498;2023-02-08T02:39:16;-3.30;77.00
1988;DHT22;12775;46.994;15.498;2023-02-08T02:42:11;-3.30;77.00
1988;DHT22;12775;46.994;15.498;2023-02-08T02:44:50;-3.30;77.10
1988;DHT22;12775;46.994;15.498;2023-02-08T02:47:30;-3.30;77.60
1988;DHT22;12775;46.994;15.498;2023-02-08T02:50:40;-3.30;77.30
1988;DHT22;12775;46.994;15.498;2023-02-08T02:52:56;-3.30;76.70
1988;DHT22;12775;46.994;15.498;2023-02-08T02:55:19;-3.30;76.60
1988;DHT22;12775;46.994;15.498;2023-02-08T02:57:46;-3.30;76.70
1988;DHT22;12775;46.994;15.498;2023-02-08T03:00:18;-3.30;77.10
1988;DHT22;12775;46.994;15.498;2023-02-08T03:02:41;-3.30;76.90
1988;DHT22;12775;46.994;15.498;2023-02-08T03:05:10;-3.30;76.80
1988;DHT22;12775;46.994;15.498;2023-02-08T03:08:02;-3.30;77.00
1988;DHT22;12775;46.994;15.498;2023-02-08T03:10:42;-3.40;76.90
1988;DHT22;12775;46.994;15.498;2023-02-08T03:13:30;-3.40;76.90
1988;DHT22;12775;46.994;15.498;2023-02-08T03:19:01;-3.50;77.10
1988;DHT22;12775;46.994;15.498;2023-02-08T03:21:33;-3.60;77.10
1988;DHT22;12775;46.994;15.498;2023-02-08T03:24:28;-3.60;77.00
1988;DHT22;12775;46.994;15.498;2023-02-08T03:27:18;-3.70;76.90
1988;DHT22;12775;46.994;15.498;2023-02-08T03:29:47;-3.70;77.50
1988;DHT22;12775;46.994;15.498;2023-02-08T03:32:18;-3.80;77.50
1988;DHT22;12775;46.994;15.498;2023-02-08T03:34:46;-3.80;77.80
1988;DHT22;12775;46.994;15.498;2023-02-08T03:37:16;-3.80;77.80
1988;DHT22;12775;46.994;15.498;2023-02-08T03:39:40;-3.80;77.80
1988;DHT22;12775;46.994;15.498;2023-02-08T03:42:10;-3.80;77.30
1988;DHT22;12775;46.994;15.498;2023-02-08T03:44:37;-3.90;77.70
1988;DHT22;12775;46.994;15.498;2023-02-08T03:47:11;-3.90;77.40
1988;DHT22;12775;46.994;15.498;2023-02-08T03:49:37;-3.90;77.30
1988;DHT22;12775;46.994;15.498;2023-02-08T03:52:06;-3.90;77.30
1988;DHT22;12775;46.994;15.498;2023-02-08T03:54:32;-3.90;78.30
1988;DHT22;12775;46.994;15.498;2023-02-08T03:59:43;-3.90;77.70
1988;DHT22;12775;46.994;15.498;2023-02-08T04:02:10;-3.90;77.90
1988;DHT22;12775;46.994;15.498;2023-02-08T04:04:38;-3.90;77.00
1988;DHT22;12775;46.994;15.498;2023-02-08T04:07:04;-3.80;76.70
1988;DHT22;12775;46.994;15.498;2023-02-08T04:09:32;-3.80;76.90
1988;DHT22;12775;46.994;15.498;2023-02-08T04:11:59;-3.90;76.80
1988;DHT22;12775;46.994;15.498;2023-02-08T04:14:25;-3.80;76.70
1988;DHT22;12775;46.994;15.498;2023-02-08T04:16:52;-3.90;76.10
1988;DHT22;12775;46.994;15.498;2023-02-08T04:19:19;-3.80;77.30
1988;DHT22;12775;46.994;15.498;2023-02-08T04:21:48;-3.80;76.70
1988;DHT22;12775;46.994;15.498;2023-02-08T04:24:15;-3.90;77.20
1988;DHT22;12775;46.994;15.498;2023-02-08T04:26:42;-3.90;77.80
1988;DHT22;12775;46.994;15.498;2023-02-08T04:29:10;-4.00;78.30
1988;DHT22;12775;46.994;15.498;2023-02-08T04:31:37;-4.00;78.50
1988;DHT22;12775;46.994;15.498;2023-02-08T04:34:05;-4.00;77.60
1988;DHT22;12775;46.994;15.498;2023-02-08T04:36:32;-4.00;77.80
1988;DHT22;12775;46.994;15.498;2023-02-08T04:38:59;-4.00;78.20
1988;DHT22;12775;46.994;15.498;2023-02-08T04:41:27;-4.00;78.80
1988;DHT22;12775;46.994;15.498;2023-02-08T04:43:54;-4.00;79.50
1988;DHT22;12775;46.994;15.498;2023-02-08T04:46:21;-4.00;79.90
1988;DHT22;12775;46.994;15.498;2023-02-08T04:48:48;-4.00;79.90
1988;DHT22;12775;46.994;15.498;2023-02-08T04:51:15;-4.00;81.20
1988;DHT22;12775;46.994;15.498;2023-02-08T04:53:42;-4.00;82.00
1988;DHT22;12775;46.994;15.498;2023-02-08T04:56:09;-4.00;82.30
1988;DHT22;12775;46.994;15.498;2023-02-08T04:58:37;-4.00;83.20
1988;DHT22;12775;46.994;15.498;2023-02-08T05:01:06;-4.00;83.60
1988;DHT22;12775;46.994;15.498;2023-02-08T05:03:32;-4.00;84.10
1988;DHT22;12775;46.994;15.498;2023-02-08T05:06:00;-4.00;84.80
1988;DHT22;12775;46.994;15.498;2023-02-08T05:08:27;-3.90;85.30
1988;DHT22;12775;46.994;15.498;2023-02-08T05:10:55;-3.90;85.70
1988;DHT22;12775;46.994;15.498;2023-02-08T05:13:23;-3.80;86.10
1988;DHT22;12775;46.994;15.498;2023-02-08T05:15:50;-3.70;86.00
1988;DHT22;12775;46.994;15.498;2023-02-08T05:18:18;-3.70;85.80
1988;DHT22;12775;46.994;15.498;2023-02-08T05:20:52;-3.70;85.90
1988;DHT22;12775;46.994;15.498;2023-02-08T05:23:12;-3.60;86.30
1988;DHT22;12775;46.994;15.498;2023-02-08T05:25:40;-3.60;86.50
1988;DHT22;12775;46.994;15.498;2023-02-08T05:28:07;-3.70;86.90
1988;DHT22;12775;46.994;15.498;2023-02-08T05:30:36;-3.80;87.80
1988;DHT22;12775;46.994;15.498;2023-02-08T05:33:02;-4.00;89.00
1988;DHT22;12775;46.994;15.498;2023-02-08T05:35:29;-4.10;89.70
1988;DHT22;12775;46.994;15.498;2023-02-08T05:37:57;-4.10;90.20
1988;DHT22;12775;46.994;15.498;2023-02-08T05:40:24;-4.20;91.00
1988;DHT22;12775;46.994;15.498;2023-02-08T05:42:52;-4.20;91.30
1988;DHT22;12775;46.994;15.498;2023-02-08T05:45:19;-4.00;91.70
1988;DHT22;12775;46.994;15.498;2023-02-08T05:47:46;-3.90;91.60
1988;DHT22;12775;46.994;15.498;2023-02-08T05:50:15;-3.80;91.60
1988;DHT22;12775;46.994;15.498;2023-02-08T05:52:42;-3.70;91.10
1988;DHT22;12775;46.994;15.498;2023-02-08T05:55:09;-3.60;90.80
1988;DHT22;12775;46.994;15.498;2023-02-08T05:57:37;-3.50;90.50
1988;DHT22;12775;46.994;15.498;2023-02-08T06:00:05;-3.50;90.20
1988;DHT22;12775;46.994;15.498;2023-02-08T06:02:32;-3.60;90.20
1988;DHT22;12775;46.994;15.498;2023-02-08T06:05:00;-3.50;90.00
1988;DHT22;12775;46.994;15.498;2023-02-08T06:07:27;-3.50;89.70
1988;DHT22;12775;46.994;15.498;2023-02-08T06:09:54;-3.40;89.90
1988;DHT22;12775;46.994;15.498;2023-02-08T06:12:22;-3.30;89.60
1988;DHT22;12775;46.994;15.498;2023-02-08T06:14:49;-3.20;89.30
1988;DHT22;12775;46.994;15.498;2023-02-08T06:17:16;-3.20;89.00
1988;DHT22;12775;46.994;15.498;2023-02-08T06:19:44;-3.10;89.50
1988;DHT22;12775;46.994;15.498;2023-02-08T06:22:11;-3.10;89.90
1988;DHT22;12775;46.994;15.498;2023-02-08T06:24:39;-3.00;90.00
1988;DHT22;12775;46.994;15.498;2023-02-08T06:27:06;-3.00;90.40
1988;DHT22;12775;46.994;15.498;2023-02-08T06:29:33;-2.90;90.40
1988;DHT22;12775;46.994;15.498;2023-02-08T06:32:01;-2.80;90.50
1988;DHT22;12775;46.994;15.498;2023-02-08T06:34:28;-2.80;90.10
1988;DHT22;12775;46.994;15.498;2023-02-08T06:36:55;-2.70;90.10
1988;DHT22;12775;46.994;15.498;2023-02-08T06:39:22;-2.80;90.10
1988;DHT22;12775;46.994;15.498;2023-02-08T06:41:49;-2.60;90.00
1988;DHT22;12775;46.994;15.498;2023-02-08T06:44:16;-2.50;89.90
1988;DHT22;12775;46.994;15.498;2023-02-08T06:46:43;-2.50;90.00
1988;DHT22;12775;46.994;15.498;2023-02-08T06:49:11;-2.50;90.00
1988;DHT22;12775;46.994;15.498;2023-02-08T06:51:38;-2.50;89.90
1988;DHT22;12775;46.994;15.498;2023-02-08T06:54:06;-2.50;90.30
1988;DHT22;12775;46.994;15.498;2023-02-08T06:56:33;-2.50;90.40
1988;DHT22;12775;46.994;15.498;2023-02-08T06:59:00;-2.50;90.30
1988;DHT22;12775;46.994;15.498;2023-02-08T07:01:28;-2.50;90.30
1988;DHT22;12775;46.994;15.498;2023-02-08T07:03:55;-2.50;90.30
1988;DHT22;12775;46.994;15.498;2023-02-08T07:06:22;-2.50;90.60
1988;DHT22;12775;46.994;15.498;2023-02-08T07:08:50;-2.50;90.80
1988;DHT22;12775;46.994;15.498;2023-02-08T07:11:17;-2.50;90.60
1988;DHT22;12775;46.994;15.498;2023-02-08T07:13:46;-2.50;90.80
1988;DHT22;12775;46.994;15.498;2023-02-08T07:16:13;-2.50;90.80
1988;DHT22;12775;46.994;15.498;2023-02-08T07:18:40;-2.40;90.90
1988;DHT22;12775;46.994;15.498;2023-02-08T07:21:08;-2.40;91.20
1988;DHT22;12775;46.994;15.498;2023-02-08T07:23:35;-2.40;91.10
1988;DHT22;12775;46.994;15.498;2023-02-08T07:26:04;-2.30;91.10
1988;DHT22;12775;46.994;15.498;2023-02-08T07:28:29;-2.40;91.10
1988;DHT22;12775;46.994;15.498;2023-02-08T07:30:56;-2.30;91.00
1988;DHT22;12775;46.994;15.498;2023-02-08T07:33:23;-2.20;91.30
1988;DHT22;12775;46.994;15.498;2023-02-08T07:35:50;-2.20;91.30
1988;DHT22;12775;46.994;15.498;2023-02-08T07:38:16;-2.10;91.40
1988;DHT22;12775;46.994;15.498;2023-02-08T07:40:44;-2.00;91.20
1988;DHT22;12775;46.994;15.498;2023-02-08T07:43:11;-1.90;91.30
1988;DHT22;12775;46.994;15.498;2023-02-08T07:45:39;-1.90;91.20
1988;DHT22;12775;46.994;15.498;2023-02-08T07:48:07;-1.80;90.90
1988;DHT22;12775;46.994;15.498;2023-02-08T07:50:34;-1.70;91.00
1988;DHT22;12775;46.994;15.498;2023-02-08T07:53:01;-1.60;91.30
1988;DHT22;12775;46.994;15.498;2023-02-08T07:55:29;-1.50;91.10
1988;DHT22;12775;46.994;15.498;2023-02-08T07:57:56;-1.50;90.10
1988;DHT22;12775;46.994;15.498;2023-02-08T08:00:24;-1.40;90.10
1988;DHT22;12775;46.994;15.498;2023-02-08T08:02:51;-1.40;89.90
1988;DHT22;12775;46.994;15.498;2023-02-08T08:05:19;-1.30;90.00
1988;DHT22;12775;46.994;15.498;2023-02-08T08:07:46;-1.30;90.30
1988;DHT22;12775;46.994;15.498;2023-02-08T08:10:13;-1.10;90.60
1988;DHT22;12775;46.994;15.498;2023-02-08T08:12:41;-1.10;90.70
1988;DHT22;12775;46.994;15.498;2023-02-08T08:15:08;-1.00;90.30
1988;DHT22;12775;46.994;15.498;2023-02-08T08:17:36;-1.00;90.20
1988;DHT22;12775;46.994;15.498;2023-02-08T08:20:02;-1.00;90.20
1988;DHT22;12775;46.994;15.498;2023-02-08T08:22:30;-0.70;90.70
1988;DHT22;12775;46.994;15.498;2023-02-08T08:24:57;-0.60;91.60
1988;DHT22;12775;46.994;15.498;2023-02-08T08:27:24;-0.60;91.80
1988;DHT22;12775;46.994;15.498;2023-02-08T08:29:52;-0.40;91.80
1988;DHT22;12775;46.994;15.498;2023-02-08T08:32:19;-0.20;91.80
1988;DHT22;12775;46.994;15.498;2023-02-08T08:34:46;-0.30;90.20
1988;DHT22;12775;46.994;15.498;2023-02-08T08:37:14;-0.20;89.50
1988;DHT22;12775;46.994;15.498;2023-02-08T08:39:41;-0.10;87.50
1988;DHT22;12775;46.994;15.498;2023-02-08T08:42:09;0.10;89.50
1988;DHT22;12775;46.994;15.498;2023-02-08T08:44:36;0.20;89.40
1988;DHT22;12775;46.994;15.498;2023-02-08T08:47:03;0.20;86.60
1988;DHT22;12775;46.994;15.498;2023-02-08T08:49:31;0.30;87.60
1988;DHT22;12775;46.994;15.498;2023-02-08T08:51:58;0.20;87.90
1988;DHT22;12775;46.994;15.498;2023-02-08T08:54:25;0.20;87.60
1988;DHT22;12775;46.994;15.498;2023-02-08T08:56:53;0.30;88.60
1988;DHT22;12775;46.994;15.498;2023-02-08T08:59:20;0.30;89.80
1988;DHT22;12775;46.994;15.498;2023-02-08T09:01:47;0.30;89.60
1988;DHT22;12775;46.994;15.498;2023-02-08T09:04:15;0.40;88.90
1988;DHT22;12775;46.994;15.498;2023-02-08T09:06:42;0.60;87.60
1988;DHT22;12775;46.994;15.498;2023-02-08T09:09:10;0.70;87.00
1988;DHT22;12775;46.994;15.498;2023-02-08T09:11:37;0.60;88.50
1988;DHT22;12775;46.994;15.498;2023-02-08T09:14:04;0.80;86.40
1988;DHT22;12775;46.994;15.498;2023-02-08T09:16:32;0.80;85.90
1988;DHT22;12775;46.994;15.498;2023-02-08T09:19:00;0.90;88.20
1988;DHT22;12775;46.994;15.498;2023-02-08T09:21:27;1.00;86.80
1988;DHT22;12775;46.994;15.498;2023-02-08T09:23:55;1.10;86.30
1988;DHT22;12775;46.994;15.498;2023-02-08T09:26:21;1.10;86.30
1988;DHT22;12775;46.994;15.498;2023-02-08T09:28:48;1.10;89.00
1988;DHT22;12775;46.994;15.498;2023-02-08T09:31:19;1.20;88.40
1988;DHT22;12775;46.994;15.498;2023-02-08T09:33:46;1.30;87.80
1988;DHT22;12775;46.994;15.498;2023-02-08T09:36:13;1.40;87.10
1988;DHT22;12775;46.994;15.498;2023-02-08T09:38:41;1.50;88.20
1988;DHT22;12775;46.994;15.498;2023-02-08T09:46:31;1.80;87.10
1988;DHT22;12775;46.994;15.498;2023-02-08T09:48:58;1.90;84.00
1988;DHT22;12775;46.994;15.498;2023-02-08T09:51:43;2.10;85.60
1988;DHT22;12775;46.994;15.498;2023-02-08T09:54:19;2.20;83.10
1988;DHT22;12775;46.994;15.498;2023-02-08T09:56:45;2.20;81.90
1988;DHT22;12775;46.994;15.498;2023-02-08T09:59:14;2.20;82.70
1988;DHT22;12775;46.994;15.498;2023-02-08T10:01:39;2.30;82.60
1988;DHT22;12775;46.994;15.498;2023-02-08T10:04:11;2.50;82.10
1988;DHT22;12775;46.994;15.498;2023-02-08T10:06:35;2.60;80.90
1988;DHT22;12775;46.994;15.498;2023-02-08T10:09:03;2.70;80.50
1988;DHT22;12775;46.994;15.498;2023-02-08T10:11:52;2.80;79.50
1988;DHT22;12775;46.994;15.498;2023-02-08T10:17:05;2.80;79.40
1988;DHT22;12775;46.994;15.498;2023-02-08T10:19:36;2.80;76.40
1988;DHT22;12775;46.994;15.498;2023-02-08T10:22:08;3.10;78.80
1988;DHT22;12775;46.994;15.498;2023-02-08T10:27:33;3.40;78.50
1988;DHT22;12775;46.994;15.498;2023-02-08T10:30:09;3.40;76.10
1988;DHT22;12775;46.994;15.498;2023-02-08T10:32:49;3.50;76.60
1988;DHT22;12775;46.994;15.498;2023-02-08T10:35:26;3.60;76.40
1988;DHT22;12775;46.994;15.498;2023-02-08T10:37:55;3.60;75.60
1988;DHT22;12775;46.994;15.498;2023-02-08T10:40:36;3.60;72.90
1988;DHT22;12775;46.994;15.498;2023-02-08T10:43:20;3.50;72.80
1988;DHT22;12775;46.994;15.498;2023-02-08T10:45:48;3.70;76.20
1988;DHT22;12775;46.994;15.498;2023-02-08T10:48:14;3.80;76.70
1988;DHT22;12775;46.994;15.498;2023-02-08T10:50:42;3.80;70.20
1988;DHT22;12775;46.994;15.498;2023-02-08T10:53:12;3.70;70.10
1988;DHT22;12775;46.994;15.498;2023-02-08T10:55:35;3.80;73.30
1988;DHT22;12775;46.994;15.498;2023-02-08T10:58:03;3.70;75.90
1988;DHT22;12775;46.994;15.498;2023-02-08T11:00:30;3.70;75.80
1988;DHT22;12775;46.994;15.498;2023-02-08T11:02:57;3.70;75.30
1988;DHT22;12775;46.994;15.498;2023-02-08T11:05:34;3.70;75.70
1988;DHT22;12775;46.994;15.498;2023-02-08T11:08:09;3.80;76.00
1988;DHT22;12775;46.994;15.498;2023-02-08T11:10:36;3.70;73.30
1988;DHT22;12775;46.994;15.498;2023-02-08T11:13:13;3.80;74.90
1988;DHT22;12775;46.994;15.498;2023-02-08T11:15:38;3.80;75.10
1988;DHT22;12775;46.994;15.498;2023-02-08T11:18:05;3.80;74.70
1988;DHT22;12775;46.994;15.498;2023-02-08T11:20:35;3.90;74.70
1988;DHT22;12775;46.994;15.498;2023-02-08T11:23:01;3.90;74.20
1988;DHT22;12775;46.994;15.498;2023-02-08T11:25:31;3.90;74.80
1988;DHT22;12775;46.994;15.498;2023-02-08T11:27:58;3.90;75.80
1988;DHT22;12775;46.994;15.498;2023-02-08T11:30:25;3.80;76.70
1988;DHT22;12775;46.994;15.498;2023-02-08T11:35:32;4.00;74.80
1988;DHT22;12775;46.994;15.498;2023-02-08T11:37:59;4.00;75.00
1988;DHT22;12775;46.994;15.498;2023-02-08T11:40:30;4.10;73.30
1988;DHT22;12775;46.994;15.498;2023-02-08T11:42:55;4.20;75.10
1988;DHT22;12775;46.994;15.498;2023-02-08T11:45:26;4.20;73.20
1988;DHT22;12775;46.994;15.498;2023-02-08T11:47:51;4.10;72.40
1988;DHT22;12775;46.994;15.498;2023-02-08T11:50:26;4.10;73.50
1988;DHT22;12775;46.994;15.498;2023-02-08T11:52:57;4.20;72.00
1988;DHT22;12775;46.994;15.498;2023-02-08T11:55:25;4.30;71.60
1988;DHT22;12775;46.994;15.498;2023-02-08T11:57:59;4.20;71.50
1988;DHT22;12775;46.994;15.498;2023-02-08T12:00:19;4.20;67.10
1988;DHT22;12775;46.994;15.498;2023-02-08T12:02:45;4.20;70.70
1988;DHT22;12775;46.994;15.498;2023-02-08T12:05:13;4.40;72.20
1988;DHT22;12775;46.994;15.498;2023-02-08T12:07:44;4.50;71.80
1988;DHT22;12775;46.994;15.498;2023-02-08T12:16:47;4.60;67.40
1988;DHT22;12775;46.994;15.498;2023-02-08T12:19:33;4.60;69.00
1988;DHT22;12775;46.994;15.498;2023-02-08T12:21:41;4.50;71.20
1988;DHT22;12775;46.994;15.498;2023-02-08T12:24:13;4.50;72.50
1988;DHT22;12775;46.994;15.498;2023-02-08T12:26:50;4.60;71.80
1988;DHT22;12775;46.994;15.498;2023-02-08T12:29:29;4.60;67.80
1988;DHT22;12775;46.994;15.498;2023-02-08T12:32:01;4.70;67.60
1988;DHT22;12775;46.994;15.498;2023-02-08T12:34:29;4.80;69.80
1988;DHT22;12775;46.994;15.498;2023-02-08T12:36:59;4.90;71.60
1988;DHT22;12775;46.994;15.498;2023-02-08T12:39:28;4.80;71.40
1988;DHT22;12775;46.994;15.498;2023-02-08T12:45:03;4.90;70.50
1988;DHT22;12775;46.994;15.498;2023-02-08T12:47:45;4.80;68.50
1988;DHT22;12775;46.994;15.498;2023-02-08T12:50:15;4.90;68.10
1988;DHT22;12775;46.994;15.498;2023-02-08T12:52:43;4.80;67.80
1988;DHT22;12775;46.994;15.498;2023-02-08T12:55:33;4.80;71.10
1988;DHT22;12775;46.994;15.498;2023-02-08T12:58:23;4.90;66.80
1988;DHT22;12775;46.994;15.498;2023-02-08T13:00:48;5.00;70.10
1988;DHT22;12775;46.994;15.498;2023-02-08T13:06:04;5.10;68.50
1988;DHT22;12775;46.994;15.498;2023-02-08T13:08:40;5.20;68.20
1988;DHT22;12775;46.994;15.498;2023-02-08T13:11:10;5.30;68.80
1988;DHT22;12775;46.994;15.498;2023-02-08T13:13:37;5.30;69.10
1988;DHT22;12775;46.994;15.498;2023-02-08T13:16:23;5.30;69.50
1988;DHT22;12775;46.994;15.498;2023-02-08T13:18:53;5.30;68.40
1988;DHT22;12775;46.994;15.498;2023-02-08T13:21:35;5.30;64.60
1988;DHT22;12775;46.994;15.498;2023-02-08T13:24:05;5.20;65.50
1988;DHT22;12775;46.994;15.498;2023-02-08T13:26:31;5.30;63.40
1988;DHT22;12775;46.994;15.498;2023-02-08T13:28:57;5.30;63.30
1988;DHT22;12775;46.994;15.498;2023-02-08T13:31:26;5.30;64.10
1988;DHT22;12775;46.994;15.498;2023-02-08T13:33:55;5.30;65.60
1988;DHT22;12775;46.994;15.498;2023-02-08T13:36:24;5.30;66.50
1988;DHT22;12775;46.994;15.498;2023-02-08T13:38:51;5.20;64.10
1988;DHT22;12775;46.994;15.498;2023-02-08T13:41:21;5.20;65.70
1988;DHT22;12775;46.994;15.498;2023-02-08T13:43:49;5.20;66.90
1988;DHT22;12775;46.994;15.498;2023-02-08T13:46:15;5.20;66.30
1988;DHT22;12775;46.994;15.498;2023-02-08T13:48:49;5.00;61.60
1988;DHT22;12775;46.994;15.498;2023-02-08T13:54:10;5.10;67.20
1988;DHT22;12775;46.994;15.498;2023-02-08T13:56:38;4.90;62.70
1988;DHT22;12775;46.994;15.498;2023-02-08T13:59:22;4.90;64.20
1988;DHT22;12775;46.994;15.498;2023-02-08T14:01:34;4.90;65.80
1988;DHT22;12775;46.994;15.498;2023-02-08T14:04:26;4.40;64.80
1988;DHT22;12775;46.994;15.498;2023-02-08T14:06:58;4.30;64.70
1988;DHT22;12775;46.994;15.498;2023-02-08T14:09:30;3.90;65.90
1988;DHT22;12775;46.994;15.498;2023-02-08T14:11:58;3.90;65.90
1988;DHT22;12775;46.994;15.498;2023-02-08T14:14:24;4.00;65.80
1988;DHT22;12775;46.994;15.498;2023-02-08T14:19:29;4.30;69.80
1988;DHT22;12775;46.994;15.498;2023-02-08T14:22:02;4.30;70.10
1988;DHT22;12775;46.994;15.498;2023-02-08T14:24:30;4.20;69.90
1988;DHT22;12775;46.994;15.498;2023-02-08T14:27:07;4.20;69.80
1988;DHT22;12775;46.994;15.498;2023-02-08T14:29:33;4.30;69.70
1988;DHT22;12775;46.994;15.498;2023-02-08T14:32:00;4.40;68.60
1988;DHT22;12775;46.994;15.498;2023-02-08T14:34:29;4.40;68.50
1988;DHT22;12775;46.994;15.498;2023-02-08T14:36:58;4.40;68.50
1988;DHT22;12775;46.994;15.498;2023-02-08T14:39:26;4.30;63.10
1988;DHT22;12775;46.994;15.498;2023-02-08T14:41:56;4.30;65.50
1988;DHT22;12775;46.994;15.498;2023-02-08T14:44:43;4.30;66.10
1988;DHT22;12775;46.994;15.498;2023-02-08T14:50:04;4.40;66.80
1988;DHT22;12775;46.994;15.498;2023-02-08T14:52:31;4.50;68.50
1988;DHT22;12775;46.994;15.498;2023-02-08T14:55:01;4.50;67.20
1988;DHT22;12775;46.994;15.498;2023-02-08T14:57:28;4.50;66.00
1988;DHT22;12775;46.994;15.498;2023-02-08T14:59:54;4.60;65.60
1988;DHT22;12775;46.994;15.498;2023-02-08T15:02:22;4.30;62.00
1988;DHT22;12775;46.994;15.498;2023-02-08T15:04:49;3.90;62.40
1988;DHT22;12775;46.994;15.498;2023-02-08T15:07:27;3.90;61.80
1988;DHT22;12775;46.994;15.498;2023-02-08T15:09:51;3.80;62.50
1988;DHT22;12775;46.994;15.498;2023-02-08T15:12:26;3.50;62.10
1988;DHT22;12775;46.994;15.498;2023-02-08T15:14:54;3.10;63.40
1988;DHT22;12775;46.994;15.498;2023-02-08T15:17:36;2.90;63.60
1988;DHT22;12775;46.994;15.498;2023-02-08T15:20:04;2.70;64.20
1988;DHT22;12775;46.994;15.498;2023-02-08T15:22:32;2.60;64.10
1988;DHT22;12775;46.994;15.498;2023-02-08T15:24:59;2.60;64.50
1988;DHT22;12775;46.994;15.498;2023-02-08T15:27:26;2.50;64.70
1988;DHT22;12775;46.994;15.498;2023-02-08T15:29:52;2.40;64.90
1988;DHT22;12775;46.994;15.498;2023-02-08T15:32:20;2.30;65.60
1988;DHT22;12775;46.994;15.498;2023-02-08T15:34:53;2.10;66.20
1988;DHT22;12775;46.994;15.498;2023-02-08T15:37:20;2.00;66.40
1988;DHT22;12775;46.994;15.498;2023-02-08T15:39:49;1.90;66.40
1988;DHT22;12775;46.994;15.498;2023-02-08T15:42:17;1.80;66.80
1988;DHT22;12775;46.994;15.498;2023-02-08T15:44:44;1.80;66.80
1988;DHT22;12775;46.994;15.498;2023-02-08T15:47:29;1.90;66.70
1988;DHT22;12775;46.994;15.498;2023-02-08T15:49:55;1.80;66.60
1988;DHT22;12775;46.994;15.498;2023-02-08T15:52:25;1.80;66.70
1988;DHT22;12775;46.994;15.498;2023-02-08T15:54:51;1.90;66.70
1988;DHT22;12775;46.994;15.498;2023-02-08T15:57:34;2.00;67.00
1988;DHT22;12775;46.994;15.498;2023-02-08T16:00:11;2.10;67.20
1988;DHT22;12775;46.994;15.498;2023-02-08T16:02:33;2.20;67.00
1988;DHT22;12775;46.994;15.498;2023-02-08T16:05:02;2.20;66.50
1988;DHT22;12775;46.994;15.498;2023-02-08T16:07:32;2.30;66.50
1988;DHT22;12775;46.994;15.498;2023-02-08T16:09:57;2.40;66.80
1988;DHT22;12775;46.994;15.498;2023-02-08T16:12:26;2.40;66.30
1988;DHT22;12775;46.994;15.498;2023-02-08T16:14:53;2.40;66.30
1988;DHT22;12775;46.994;15.498;2023-02-08T16:17:41;2.50;66.90
1988;DHT22;12775;46.994;15.498;2023-02-08T16:22:44;2.50;68.00
1988;DHT22;12775;46.994;15.498;2023-02-08T16:25:29;2.40;68.00
1988;DHT22;12775;46.994;15.498;2023-02-08T16:27:50;2.40;68.00
1988;DHT22;12775;46.994;15.498;2023-02-08T16:30:18;2.50;68.80
1988;DHT22;12775;46.994;15.498;2023-02-08T16:32:44;2.50;69.20
1988;DHT22;12775;46.994;15.498;2023-02-08T16:35:13;2.50;69.50
1988;DHT22;12775;46.994;15.498;2023-02-08T16:37:41;2.50;69.80
1988;DHT22;12775;46.994;15.498;2023-02-08T16:45:39;2.10;68.50
1988;DHT22;12775;46.994;15.498;2023-02-08T16:48:26;1.90;69.20
1988;DHT22;12775;46.994;15.498;2023-02-08T16:50:52;1.70;70.70